ロメ の空港の天気 - METARとTAF

ロメ空港 ( DXXX / LFW ) - トーゴ ロメ
飛行場実況気象(Metar)
観測時間10/20 04:00 GMT (10/20 04:00 UTC)
風向・風速西南西 3m/s
視程8000m
天気現象弱い雷雨
少しの雲 雲底高度 240m
少しの雲 雲底高度 520m
気温25℃
湿度94%
気圧1010hPa
METARDXXX 200400Z 24006KT 8000 -TSRA FEW008 FEW017CB 25/24 Q1010 RERA NOSIG
過去の天気等 Google飛行場航空写真 Wunderground天気予報

過去48時間のMETAR

飛行場予報(TAF)
発表時間: 10/19 23:00 GMT (10/19 23:00 UTC)
予報対象時間: 20日0時 GMT ~ 21日6時 GMT
風向・風速西 3m/s
視程10km以上
天気現象
全天の8割程度の雲 雲底高度 300m
少しの積乱雲 雲底高度 610m
20日0時 GMT ~ 20日4時 GMT に 確率 30% で一時的に
視程4000m
天気現象雷雨
20日4時 GMT ~ 20日6時 GMT に徐々に
天気現象運行に影響にある天気現象が終了
全天の4割程度の雲 雲底高度 300m
20日8時 GMT ~ 20日10時 GMT に徐々に
風向・風速南南西 5m/s
20日22時 GMT ~ 20日24時 GMT に徐々に
風向・風速西 3m/s
TAF DXXX 192300Z 2000/2106 26005KT 9999 TS BKN010 FEW020CB
PROB30 TEMPO 2000/2004 4000 TSRA
BECMG 2004/2006 NSW SCT010
BECMG 2008/2010 20010KT
BECMG 2022/2024 26005KT